Edt Zenon — 5BLV2 — position and weather

sailwx.info

Track history (hours):
 
Tides and Currents Weather Stations Pressure Air Temp Water Temp Dewpoint Dewpoint Depression Visibility Wind Speed Wind Dir Waves Ship Positions

Edt Zenon

Last reported at 2017-Sep-20 00:00 UTC. Time now 2017-Sep-20 00:19 UTC.
Position N 34°39' E 033°00'.

Length 28 m; draft 2.2 m.

Type: Tug. MMSI: 212541000.

Date/timePositionNaut miles runAvg speedWind from/ knotsBaromVisibWave heightAir tempDewpointWater temp
2017-Sep-20 00:00N 34°39' E 033°00'0 0.0
2017-Sep-19 23:30N 34°39' E 033°00'0 0.0
2017-Sep-19 23:00N 34°39' E 033°00'0 0.0
2017-Sep-19 22:31N 34°39' E 033°00'0 0.0
2017-Sep-19 22:00N 34°39' E 033°00'0 0.0
2017-Sep-19 21:30N 34°39' E 033°00'2 4.0
2017-Sep-19 21:00N 34°39' E 033°03'1 0.1
2017-Sep-19 15:47N 34°38' E 033°04'2 7.5
2017-Sep-19 15:30N 34°39' E 033°01'0 0.9
2017-Sep-19 15:00N 34°39' E 033°00'0 0.0
2017-Sep-19 14:30N 34°39' E 033°00'0 0.0
2017-Sep-19 14:00N 34°39' E 033°00'0 0.0
2017-Sep-19 13:30N 34°39' E 033°00'0 0.0
2017-Sep-19 13:00N 34°39' E 033°00'0 0.0
2017-Sep-19 12:30N 34°39' E 033°00'0 0.0
2017-Sep-19 12:00N 34°39' E 033°00'0 0.0
2017-Sep-19 11:30N 34°39' E 033°00'0 0.0
2017-Sep-19 11:00N 34°39' E 033°00'0 0.0
2017-Sep-19 10:30N 34°39' E 033°00'0 0.0
2017-Sep-19 10:00N 34°39' E 033°00'0 0.2
2017-Sep-19 09:30N 34°39' E 033°01'1 1.1
2017-Sep-19 08:59N 34°39' E 033°01'1 0.2
2017-Sep-19 02:56N 34°39' E 033°02'2 3.6
2017-Sep-19 02:29N 34°39' E 033°00'0 0.0
2017-Sep-19 02:00N 34°39' E 033°00'0 0.0
2017-Sep-19 01:22N 34°39' E 033°00'0 0.0
2017-Sep-19 01:00N 34°39' E 033°00'0 0.0
2017-Sep-19 00:30N 34°39' E 033°00'0 0.0
2017-Sep-18 23:57N 34°39' E 033°00'0 0.0
2017-Sep-18 23:30N 34°39' E 033°00'0 0.0
2017-Sep-18 23:00N 34°39' E 033°00'0 0.0
2017-Sep-18 22:30N 34°39' E 033°00'0 0.0
2017-Sep-18 21:59N 34°39' E 033°00'0 0.0
2017-Sep-18 21:23N 34°39' E 033°00'0 0.0
2017-Sep-18 21:00N 34°39' E 033°00'0 0.0
2017-Sep-18 20:30N 34°39' E 033°00'0 0.0
2017-Sep-18 20:00N 34°39' E 033°00'0 0.0
2017-Sep-18 19:30N 34°39' E 033°00'0 0.0
2017-Sep-18 19:00N 34°39' E 033°00'0 0.0
2017-Sep-18 18:30N 34°39' E 033°00'0 0.0
2017-Sep-18 18:00N 34°39' E 033°00'0 0.0
2017-Sep-18 17:30N 34°39' E 033°00'0 0.0
2017-Sep-18 17:00N 34°39' E 033°00'0 0.0
2017-Sep-18 16:30N 34°39' E 033°00'0 0.0
2017-Sep-18 16:00N 34°39' E 033°00'0 0.0
2017-Sep-18 15:30N 34°39' E 033°00'0 0.0
2017-Sep-18 15:00N 34°39' E 033°00'0 0.0
2017-Sep-18 14:30N 34°39' E 033°00'0 0.0
2017-Sep-18 14:00N 34°39' E 033°00'0 0.0
2017-Sep-18 13:30N 34°39' E 033°00'0 0.1
2017-Sep-18 13:00N 34°39' E 033°00'0 0.0
2017-Sep-18 12:30N 34°39' E 033°00'0 0.0
2017-Sep-18 12:00N 34°39' E 033°00'0 0.0
2017-Sep-18 11:30N 34°39' E 033°00'0 0.1
2017-Sep-18 11:00N 34°39' E 033°01'0 0.0
2017-Sep-18 10:30N 34°39' E 033°00'0 0.2
2017-Sep-18 10:00N 34°39' E 033°01'0 0.1
2017-Sep-18 09:28N 34°39' E 033°00'0 0.1
2017-Sep-18 09:00N 34°39' E 033°00'0 0.0
2017-Sep-18 08:30N 34°39' E 033°00'0 0.0
2017-Sep-18 08:00N 34°39' E 033°00'0 0.0
2017-Sep-18 07:30N 34°39' E 033°00'0 0.0
2017-Sep-18 07:00N 34°39' E 033°00'0 0.0
2017-Sep-18 06:30N 34°39' E 033°00'0 0.0
2017-Sep-18 06:00N 34°39' E 033°00'0 0.1
2017-Sep-18 05:30N 34°39' E 033°01'0 0.1
2017-Sep-18 05:00N 34°39' E 033°00'0 0.0
2017-Sep-18 04:30N 34°39' E 033°00'0 0.0
2017-Sep-18 03:52N 34°39' E 033°00'0 0.0
2017-Sep-18 03:30N 34°39' E 033°00'0 0.0
2017-Sep-18 03:00N 34°39' E 033°01'0 0.0
2017-Sep-18 02:30N 34°39' E 033°00'0 0.0
2017-Sep-18 02:00N 34°39' E 033°00'0 0.0
2017-Sep-18 01:30N 34°39' E 033°00'0 0.0
2017-Sep-18 00:59N 34°39' E 033°00'0 0.0
2017-Sep-18 00:30N 34°39' E 033°00'0 0.0
2017-Sep-17 23:55N 34°39' E 033°00'0 0.0
2017-Sep-17 23:30N 34°39' E 033°00'0 0.0
2017-Sep-17 23:00N 34°39' E 033°00'0 0.0
2017-Sep-17 22:30N 34°39' E 033°00'0 0.0
2017-Sep-17 22:00N 34°39' E 033°00'0 0.0
2017-Sep-17 21:30N 34°39' E 033°00'0 0.0
2017-Sep-17 20:58N 34°39' E 033°00'0 0.0
2017-Sep-17 20:30N 34°39' E 033°00'0 0.0
2017-Sep-17 20:00N 34°39' E 033°00'0 0.0
2017-Sep-17 19:30N 34°39' E 033°00'0 0.0
2017-Sep-17 19:00N 34°39' E 033°00'1 2.8
2017-Sep-17 18:30N 34°39' E 033°02'1 0.2
2017-Sep-17 13:17N 34°39' E 033°03'2 7.2
2017-Sep-17 13:00N 34°39' E 033°01'0 0.2
2017-Sep-17 12:30N 34°39' E 033°01'0 0.0
2017-Sep-17 12:00N 34°39' E 033°00'0 0.0
2017-Sep-17 11:30N 34°39' E 033°00'0 0.0
2017-Sep-17 11:00N 34°39' E 033°01'0 0.0
2017-Sep-17 10:30N 34°39' E 033°00'0 0.0
2017-Sep-17 10:00N 34°39' E 033°00'0 0.0
2017-Sep-17 09:30N 34°39' E 033°00'0 0.0
2017-Sep-17 09:00N 34°39' E 033°00'0 0.0
2017-Sep-17 08:30N 34°39' E 033°00'0 0.0
2017-Sep-17 08:00N 34°39' E 033°01'0 0.0
2017-Sep-17 07:30N 34°39' E 033°01'0 0.0
2017-Sep-17 07:00N 34°39' E 033°00'0 0.0
2017-Sep-17 06:30N 34°39' E 033°00'0 0.0
2017-Sep-17 06:00N 34°39' E 033°00'0 0.0
2017-Sep-17 05:30N 34°39' E 033°01'0 0.0
2017-Sep-17 05:00N 34°39' E 033°00'0 0.0
2017-Sep-17 04:30N 34°39' E 033°00'0 0.0
2017-Sep-17 04:00N 34°39' E 033°00'0 0.0
2017-Sep-17 03:30N 34°39' E 033°01'0 0.0
2017-Sep-17 03:00N 34°39' E 033°00'0 0.0
2017-Sep-17 02:30N 34°39' E 033°00'0 0.0
2017-Sep-17 02:00N 34°39' E 033°00'0 0.0
2017-Sep-17 01:30N 34°39' E 033°00'0 0.0
2017-Sep-17 01:00N 34°39' E 033°00'0 0.0
2017-Sep-17 00:30N 34°39' E 033°00'0 0.0
2017-Sep-17 00:00N 34°39' E 033°00'0 0.0
2017-Sep-16 23:30N 34°39' E 033°00'0 0.0
2017-Sep-16 23:00N 34°39' E 033°00'0 0.0
2017-Sep-16 22:30N 34°39' E 033°00'0 0.0
2017-Sep-16 22:00N 34°39' E 033°00'0 0.0
2017-Sep-16 21:30N 34°39' E 033°01'0 0.0
2017-Sep-16 21:00N 34°39' E 033°00'0 0.0
2017-Sep-16 20:30N 34°39' E 033°00'0 0.0
2017-Sep-16 20:00N 34°39' E 033°00'0 0.0
2017-Sep-16 19:30N 34°39' E 033°00'0 0.0
2017-Sep-16 19:00N 34°39' E 033°00'0 0.0
2017-Sep-16 18:30N 34°39' E 033°01'0 0.0
2017-Sep-16 18:00N 34°39' E 033°00'0 0.0
2017-Sep-16 17:30N 34°39' E 033°00'0 0.0
2017-Sep-16 17:00N 34°39' E 033°00'0 0.0
2017-Sep-16 16:30N 34°39' E 033°00'0 0.0
2017-Sep-16 16:00N 34°39' E 033°01'0 0.0
2017-Sep-16 15:30N 34°39' E 033°01'0 0.0
2017-Sep-16 15:00N 34°39' E 033°01'0 0.0
2017-Sep-16 14:30N 34°39' E 033°00'0 0.0
2017-Sep-16 14:00N 34°39' E 033°00'0 0.1
2017-Sep-16 13:30N 34°39' E 033°00'1 0.1
2017-Sep-16 03:19N 34°39' E 033°02'1 4.0
2017-Sep-16 03:00N 34°39' E 033°00'0 0.0
2017-Sep-16 02:30N 34°39' E 033°00'0 0.0
2017-Sep-16 02:00N 34°39' E 033°00'0 0.0
2017-Sep-16 01:30N 34°39' E 033°00'0 0.0
2017-Sep-16 01:00N 34°39' E 033°00'0 0.0
2017-Sep-16 00:30N 34°39' E 033°00'0 0.0
2017-Sep-16 00:00N 34°39' E 033°00'0 0.0
2017-Sep-15 23:30N 34°39' E 033°00'0 0.0
2017-Sep-15 23:00N 34°39' E 033°00'0 0.0
2017-Sep-15 22:30N 34°39' E 033°00'0 0.0
2017-Sep-15 22:00N 34°39' E 033°00'0 0.0
2017-Sep-15 21:30N 34°39' E 033°00'0 0.0
2017-Sep-15 20:51N 34°39' E 033°00'0 0.0
2017-Sep-15 20:28N 34°39' E 033°00'0 0.0
2017-Sep-15 20:00N 34°39' E 033°00'0 0.0
2017-Sep-15 19:30N 34°39' E 033°00'0 0.0
2017-Sep-15 19:00N 34°39' E 033°00'0 0.0
2017-Sep-15 18:27N 34°39' E 033°00'0 0.0
2017-Sep-15 18:00N 34°39' E 033°00'0 0.0
2017-Sep-15 17:30N 34°39' E 033°00'0 0.0
2017-Sep-15 17:00N 34°39' E 033°00'0 0.0
2017-Sep-15 16:30N 34°39' E 033°00'0 0.0
2017-Sep-15 16:00N 34°39' E 033°00'0 0.0
2017-Sep-15 15:30N 34°39' E 033°00'0 0.0
2017-Sep-15 15:00N 34°39' E 033°00'0 0.0
2017-Sep-15 14:31N 34°39' E 033°01'0 0.1
2017-Sep-15 14:00N 34°39' E 033°00'0 0.0
2017-Sep-15 13:29N 34°39' E 033°00'0 0.1
2017-Sep-15 13:00N 34°39' E 033°01'0 0.0
2017-Sep-15 12:30N 34°39' E 033°00'0 0.0
2017-Sep-15 11:57N 34°39' E 033°00'0 0.0
2017-Sep-15 11:21N 34°39' E 033°00'0 0.0
2017-Sep-15 11:00N 34°39' E 033°00'0 0.0
2017-Sep-15 10:30N 34°39' E 033°01'0 0.0
2017-Sep-15 09:57N 34°39' E 033°00'0 0.0
2017-Sep-15 09:30N 34°39' E 033°00'0 0.0
2017-Sep-15 09:00N 34°39' E 033°00'0 0.0
2017-Sep-15 08:30N 34°39' E 033°00'0 0.0
2017-Sep-15 08:01N 34°39' E 033°00'0 0.0
2017-Sep-15 07:31N 34°39' E 033°00'0 0.0
2017-Sep-15 07:01N 34°39' E 033°00'0 0.0
2017-Sep-15 06:30N 34°39' E 033°00'0 0.0
2017-Sep-15 06:00N 34°39' E 033°01'0 0.0
2017-Sep-15 05:30N 34°39' E 033°01'0 0.0
2017-Sep-15 04:56N 34°39' E 033°00'0 0.0
2017-Sep-15 04:30N 34°39' E 033°01'0 0.0
2017-Sep-15 04:00N 34°39' E 033°00'0 0.0
2017-Sep-15 03:28N 34°39' E 033°01'0 0.0
2017-Sep-15 03:00N 34°39' E 033°00'0 0.0
2017-Sep-15 02:30N 34°39' E 033°01'0 0.0
2017-Sep-15 02:00N 34°39' E 033°00'0 0.0
2017-Sep-15 01:30N 34°39' E 033°00'0 0.0
2017-Sep-15 01:00N 34°39' E 033°00'0 0.0
2017-Sep-15 00:30N 34°39' E 033°00'0 0.0
2017-Sep-15 00:00N 34°39' E 033°01'0 0.0
2017-Sep-14 23:30N 34°39' E 033°01'0 0.0
2017-Sep-14 23:01N 34°39' E 033°01'0 0.0
2017-Sep-14 22:30N 34°39' E 033°00'0 0.0
2017-Sep-14 21:59N 34°39' E 033°00'0 0.0
2017-Sep-14 21:31N 34°39' E 033°01'0 0.0
2017-Sep-14 21:00N 34°39' E 033°01'0 0.0
2017-Sep-14 20:30N 34°39' E 033°00'0 0.0
2017-Sep-14 20:01N 34°39' E 033°00'0 0.0
2017-Sep-14 19:30N 34°39' E 033°00'0 0.0
2017-Sep-14 19:01N 34°39' E 033°00'0 0.0
2017-Sep-14 18:30N 34°39' E 033°00'0 0.0
2017-Sep-14 18:00N 34°39' E 033°00'0 0.0
2017-Sep-14 17:30N 34°39' E 033°01'0 0.0
2017-Sep-14 17:00N 34°39' E 033°00'0 0.0
2017-Sep-14 16:30N 34°39' E 033°00'2 0.3
2017-Sep-14 10:37N 34°39' E 033°03'1 5.4
2017-Sep-14 10:29N 34°39' E 033°02'1 2.9
2017-Sep-14 10:01N 34°39' E 033°00'0 0.0
2017-Sep-14 09:31N 34°39' E 033°00'0 0.0
2017-Sep-14 09:01N 34°39' E 033°00'0 0.0
2017-Sep-14 08:30N 34°39' E 033°00'0 0.0
2017-Sep-14 08:00N 34°39' E 033°00'0 0.0
2017-Sep-14 07:31N 34°39' E 033°00'0 0.0
2017-Sep-14 07:00N 34°39' E 033°00'0 0.0
2017-Sep-14 06:31N 34°39' E 033°00'0 0.0
2017-Sep-14 06:00N 34°39' E 033°00'0 0.0
2017-Sep-14 05:30N 34°39' E 033°00'0 0.0
2017-Sep-14 05:01N 34°39' E 033°01'0 0.0
2017-Sep-14 04:30N 34°39' E 033°00'0 0.0
2017-Sep-14 04:01N 34°39' E 033°00'0 0.0
2017-Sep-14 03:30N 34°39' E 033°00'0 0.0
2017-Sep-14 03:00N 34°39' E 033°01'0 0.0
2017-Sep-14 02:30N 34°39' E 033°00'1 1.6
2017-Sep-14 02:00N 34°39' E 033°01'16 6.1
2017-Sep-13 23:19N 34°32' E 033°19'15 5.9
2017-Sep-13 20:48N 34°39' E 033°03'2 6.5
2017-Sep-13 20:30N 34°39' E 033°01'0 0.3
2017-Sep-13 20:00N 34°39' E 033°00'0 0.0
2017-Sep-13 19:31N 34°39' E 033°00'0 0.0
2017-Sep-13 19:01N 34°39' E 033°01'0 0.0
2017-Sep-13 18:30N 34°39' E 033°00'0 0.0
2017-Sep-13 18:00N 34°39' E 033°00'0 0.0
2017-Sep-13 17:30N 34°39' E 033°00'0 0.0
2017-Sep-13 17:00N 34°39' E 033°00'0 0.0
2017-Sep-13 16:30N 34°39' E 033°00'0 0.0
2017-Sep-13 15:59N 34°39' E 033°00'0 0.0
2017-Sep-13 15:25N 34°39' E 033°01'0 0.0
2017-Sep-13 14:59N 34°39' E 033°00'0 0.0
2017-Sep-13 14:27N 34°39' E 033°00'0 0.0
2017-Sep-13 14:00N 34°39' E 033°00'0 0.0
2017-Sep-13 13:30N 34°39' E 033°00'0 0.0
2017-Sep-13 12:59N 34°39' E 033°01'0 0.0
2017-Sep-13 12:30N 34°39' E 033°01'0 0.0
2017-Sep-13 11:59N 34°39' E 033°00'0 0.0
2017-Sep-13 11:29N 34°39' E 033°00'0 0.0
2017-Sep-13 11:00N 34°39' E 033°00'0 0.0
2017-Sep-13 10:23N 34°39' E 033°00'0 0.0
2017-Sep-13 09:58N 34°39' E 033°00'0 0.0
2017-Sep-13 09:30N 34°39' E 033°00'0 0.0
2017-Sep-13 09:00N 34°39' E 033°00'0 0.0
2017-Sep-13 08:30N 34°39' E 033°00'0 0.0
2017-Sep-13 08:00N 34°39' E 033°00'0 0.0
2017-Sep-13 07:30N 34°39' E 033°00'0 0.1
2017-Sep-13 06:59N 34°39' E 033°01'0 0.1
2017-Sep-13 06:30N 34°39' E 033°00'0 0.1
2017-Sep-13 05:59N 34°39' E 033°00'16 6.4
2017-Sep-13 03:26N 34°31' E 033°18'1 1.1
2017-Sep-13 02:58N 34°31' E 033°18'15 5.9
2017-Sep-13 00:24N 34°39' E 033°02'2 3.7
2017-Sep-12 23:59N 34°39' E 033°00'0 0.0
2017-Sep-12 23:30N 34°39' E 033°01'0 0.0
2017-Sep-12 22:59N 34°39' E 033°00'0 0.0
2017-Sep-12 22:30N 34°39' E 033°00'0 0.0
2017-Sep-12 22:00N 34°39' E 033°00'0 0.0
2017-Sep-12 21:30N 34°39' E 033°00'0 0.0
2017-Sep-12 21:00N 34°39' E 033°00'0 0.0
2017-Sep-12 20:31N 34°39' E 033°00'0 0.0
2017-Sep-12 20:00N 34°39' E 033°00'0 0.0
2017-Sep-12 19:31N 34°39' E 033°00'0 0.0
2017-Sep-12 19:01N 34°39' E 033°00'0 0.0
2017-Sep-12 18:31N 34°39' E 033°00'0 0.0
2017-Sep-12 18:00N 34°39' E 033°00'0 0.0
2017-Sep-12 17:30N 34°39' E 033°00'0 0.0
2017-Sep-12 17:00N 34°39' E 033°00'0 0.0
2017-Sep-12 16:30N 34°39' E 033°01'0 0.0
2017-Sep-12 16:00N 34°39' E 033°00'0 0.0
2017-Sep-12 15:30N 34°39' E 033°00'0 0.0
2017-Sep-12 15:00N 34°39' E 033°01'0 0.0
2017-Sep-12 14:30N 34°39' E 033°00'0 0.1
2017-Sep-12 14:00N 34°39' E 033°01'0 0.0
2017-Sep-12 13:30N 34°39' E 033°01'0 0.1
2017-Sep-12 13:00N 34°39' E 033°01'0 0.0
2017-Sep-12 12:30N 34°39' E 033°01'0 0.1
2017-Sep-12 12:00N 34°39' E 033°00'0 0.0
2017-Sep-12 11:30N 34°39' E 033°00'0 0.0
2017-Sep-12 11:01N 34°39' E 033°00'0 0.0
2017-Sep-12 10:30N 34°39' E 033°00'0 0.0
2017-Sep-12 10:00N 34°39' E 033°00'0 0.0
2017-Sep-12 09:30N 34°39' E 033°00'0 0.0
2017-Sep-12 09:00N 34°39' E 033°00'0 0.0
2017-Sep-12 08:30N 34°39' E 033°00'0 0.0
2017-Sep-12 08:00N 34°39' E 033°00'0 0.0
2017-Sep-12 07:30N 34°39' E 033°00'0 0.0
2017-Sep-12 07:00N 34°39' E 033°00'0 0.0
2017-Sep-12 06:30N 34°39' E 033°00'0 0.0
2017-Sep-12 05:58N 34°39' E 033°00'0 0.0
2017-Sep-12 04:40N 34°39' E 033°00'0 0.0
2017-Sep-12 04:30N 34°39' E 033°00'0 0.0
2017-Sep-12 00:47N 34°39' E 033°00'0 0.0
2017-Sep-12 00:10N 34°39' E 033°00'0 0.0
2017-Sep-11 23:54N 34°39' E 033°00'0 0.0
2017-Sep-11 23:27N 34°39' E 033°00'0 0.0
2017-Sep-11 22:58N 34°39' E 033°00'0 0.0
2017-Sep-11 22:30N 34°39' E 033°00'0 0.0
2017-Sep-11 22:01N 34°39' E 033°00'0 0.0
2017-Sep-11 21:29N 34°39' E 033°00'0 0.0
2017-Sep-11 21:00N 34°39' E 033°00'0 0.0
2017-Sep-11 19:51N 34°39' E 033°00'0 0.0
2017-Sep-11 18:38N 34°39' E 033°00'0 0.0
2017-Sep-11 15:09N 34°39' E 033°00'0 0.0
2017-Sep-11 14:53N 34°39' E 033°00'0 0.0
2017-Sep-11 14:27N 34°39' E 033°00'0 0.0
2017-Sep-11 13:59N 34°39' E 033°00'0 0.0
2017-Sep-11 13:28N 34°39' E 033°00'0 0.0
2017-Sep-11 13:00N 34°39' E 033°00'0 0.0
2017-Sep-11 12:28N 34°39' E 033°00'0 0.0
2017-Sep-11 11:59N 34°39' E 033°00'0 0.0
2017-Sep-11 11:25N 34°39' E 033°00'0 0.0
2017-Sep-11 10:50N 34°39' E 033°00'0 0.0
2017-Sep-11 10:16N 34°39' E 033°00'0 0.0
2017-Sep-11 09:59N 34°39' E 033°00'0 0.0
2017-Sep-11 09:30N 34°39' E 033°00'0 0.0
2017-Sep-11 08:57N 34°39' E 033°00'0 0.0
2017-Sep-11 08:25N 34°39' E 033°00'0 0.0
2017-Sep-11 07:49N 34°39' E 033°00'0 0.0
2017-Sep-11 07:04N 34°39' E 033°00'0 0.0
2017-Sep-11 06:57N 34°39' E 033°00'0 0.0
2017-Sep-11 06:29N 34°39' E 033°00'0 0.0
2017-Sep-11 03:52N 34°39' E 033°00'0 0.0
2017-Sep-11 03:27N 34°39' E 033°00'0 0.0
2017-Sep-10 21:23N 34°39' E 033°00'0 0.0
2017-Sep-10 18:56N 34°39' E 033°00'0 0.0
2017-Sep-10 18:07N 34°39' E 033°00'0 0.0
2017-Sep-10 18:00N 34°39' E 033°00'0 0.0
2017-Sep-10 17:29N 34°39' E 033°00'0 0.0
2017-Sep-10 17:00N 34°39' E 033°00'0 0.0
2017-Sep-10 15:44N 34°39' E 033°00'0 0.0
2017-Sep-10 13:45N 34°39' E 033°00'0 0.0
2017-Sep-10 12:39N 34°39' E 033°00'0 0.0
2017-Sep-10 12:25N 34°39' E 033°00'0 0.0
2017-Sep-10 11:57N 34°39' E 033°00'0 0.0
2017-Sep-10 11:27N 34°39' E 033°00'0 0.0
2017-Sep-10 11:00N 34°39' E 033°00'0 0.0
2017-Sep-10 10:26N 34°39' E 033°00'0 0.0
2017-Sep-10 10:01N 34°39' E 033°00'0 0.0
2017-Sep-10 09:30N 34°39' E 033°00'0 0.0
2017-Sep-10 09:00N 34°39' E 033°00'0 0.0
2017-Sep-10 08:30N 34°39' E 033°00'0 0.0
2017-Sep-10 08:00N 34°39' E 033°00'0 0.0
2017-Sep-10 07:30N 34°39' E 033°00'0 0.0
2017-Sep-10 07:01N 34°39' E 033°00'0 0.0
2017-Sep-10 06:30N 34°39' E 033°00'0 0.0
2017-Sep-10 05:58N 34°39' E 033°00'0 0.0
2017-Sep-10 04:26N 34°39' E 033°00'0 0.0
2017-Sep-10 04:00N 34°39' E 033°00'  
Track history (hours):
 
Tides and Currents Weather Stations Pressure Air Temp Water Temp Dewpoint Dewpoint Depression Visibility Wind Speed Wind Dir Waves Ship Positions

Edt Zenon

Last reported at 2017-Sep-20 00:00 UTC. Time now 2017-Sep-20 00:20 UTC.
Position N 34°39' E 033°00'.

Length 28 m; draft 2.2 m.

Type: Tug. MMSI: 212541000.

Date/timePositionNaut miles runAvg speedWind from/ knotsBaromVisibWave heightAir tempDewpointWater temp
2017-Sep-20 00:00N 34°39' E 033°00'0 0.0
2017-Sep-19 23:30N 34°39' E 033°00'0 0.0
2017-Sep-19 23:00N 34°39' E 033°00'0 0.0
2017-Sep-19 22:31N 34°39' E 033°00'0 0.0
2017-Sep-19 22:00N 34°39' E 033°00'0 0.0
2017-Sep-19 21:30N 34°39' E 033°00'2 4.0
2017-Sep-19 21:00N 34°39' E 033°03'1 0.1
2017-Sep-19 15:47N 34°38' E 033°04'2 7.5
2017-Sep-19 15:30N 34°39' E 033°01'0 0.9
2017-Sep-19 15:00N 34°39' E 033°00'0 0.0
2017-Sep-19 14:30N 34°39' E 033°00'0 0.0
2017-Sep-19 14:00N 34°39' E 033°00'0 0.0
2017-Sep-19 13:30N 34°39' E 033°00'0 0.0
2017-Sep-19 13:00N 34°39' E 033°00'0 0.0
2017-Sep-19 12:30N 34°39' E 033°00'0 0.0
2017-Sep-19 12:00N 34°39' E 033°00'0 0.0
2017-Sep-19 11:30N 34°39' E 033°00'0 0.0
2017-Sep-19 11:00N 34°39' E 033°00'0 0.0
2017-Sep-19 10:30N 34°39' E 033°00'0 0.0
2017-Sep-19 10:00N 34°39' E 033°00'0 0.2
2017-Sep-19 09:30N 34°39' E 033°01'1 1.1
2017-Sep-19 08:59N 34°39' E 033°01'1 0.2
2017-Sep-19 02:56N 34°39' E 033°02'2 3.6
2017-Sep-19 02:29N 34°39' E 033°00'0 0.0
2017-Sep-19 02:00N 34°39' E 033°00'0 0.0
2017-Sep-19 01:22N 34°39' E 033°00'0 0.0
2017-Sep-19 01:00N 34°39' E 033°00'0 0.0
2017-Sep-19 00:30N 34°39' E 033°00'0 0.0
2017-Sep-18 23:57N 34°39' E 033°00'0 0.0
2017-Sep-18 23:30N 34°39' E 033°00'0 0.0
2017-Sep-18 23:00N 34°39' E 033°00'0 0.0
2017-Sep-18 22:30N 34°39' E 033°00'0 0.0
2017-Sep-18 21:59N 34°39' E 033°00'0 0.0
2017-Sep-18 21:23N 34°39' E 033°00'0 0.0
2017-Sep-18 21:00N 34°39' E 033°00'0 0.0
2017-Sep-18 20:30N 34°39' E 033°00'0 0.0
2017-Sep-18 20:00N 34°39' E 033°00'0 0.0
2017-Sep-18 19:30N 34°39' E 033°00'0 0.0
2017-Sep-18 19:00N 34°39' E 033°00'0 0.0
2017-Sep-18 18:30N 34°39' E 033°00'0 0.0
2017-Sep-18 18:00N 34°39' E 033°00'0 0.0
2017-Sep-18 17:30N 34°39' E 033°00'0 0.0
2017-Sep-18 17:00N 34°39' E 033°00'0 0.0
2017-Sep-18 16:30N 34°39' E 033°00'0 0.0
2017-Sep-18 16:00N 34°39' E 033°00'0 0.0
2017-Sep-18 15:30N 34°39' E 033°00'0 0.0
2017-Sep-18 15:00N 34°39' E 033°00'0 0.0
2017-Sep-18 14:30N 34°39' E 033°00'0 0.0
2017-Sep-18 14:00N 34°39' E 033°00'0 0.0
2017-Sep-18 13:30N 34°39' E 033°00'0 0.1
2017-Sep-18 13:00N 34°39' E 033°00'0 0.0
2017-Sep-18 12:30N 34°39' E 033°00'0 0.0
2017-Sep-18 12:00N 34°39' E 033°00'0 0.0
2017-Sep-18 11:30N 34°39' E 033°00'0 0.1
2017-Sep-18 11:00N 34°39' E 033°01'0 0.0
2017-Sep-18 10:30N 34°39' E 033°00'0 0.2
2017-Sep-18 10:00N 34°39' E 033°01'0 0.1
2017-Sep-18 09:28N 34°39' E 033°00'0 0.1
2017-Sep-18 09:00N 34°39' E 033°00'0 0.0
2017-Sep-18 08:30N 34°39' E 033°00'0 0.0
2017-Sep-18 08:00N 34°39' E 033°00'0 0.0
2017-Sep-18 07:30N 34°39' E 033°00'0 0.0
2017-Sep-18 07:00N 34°39' E 033°00'0 0.0
2017-Sep-18 06:30N 34°39' E 033°00'0 0.0
2017-Sep-18 06:00N 34°39' E 033°00'0 0.1
2017-Sep-18 05:30N 34°39' E 033°01'0 0.1
2017-Sep-18 05:00N 34°39' E 033°00'0 0.0
2017-Sep-18 04:30N 34°39' E 033°00'0 0.0
2017-Sep-18 03:52N 34°39' E 033°00'0 0.0
2017-Sep-18 03:30N 34°39' E 033°00'0 0.0
2017-Sep-18 03:00N 34°39' E 033°01'0 0.0
2017-Sep-18 02:30N 34°39' E 033°00'0 0.0
2017-Sep-18 02:00N 34°39' E 033°00'0 0.0
2017-Sep-18 01:30N 34°39' E 033°00'0 0.0
2017-Sep-18 00:59N 34°39' E 033°00'0 0.0
2017-Sep-18 00:30N 34°39' E 033°00'0 0.0
2017-Sep-17 23:55N 34°39' E 033°00'0 0.0
2017-Sep-17 23:30N 34°39' E 033°00'0 0.0
2017-Sep-17 23:00N 34°39' E 033°00'0 0.0
2017-Sep-17 22:30N 34°39' E 033°00'0 0.0
2017-Sep-17 22:00N 34°39' E 033°00'0 0.0
2017-Sep-17 21:30N 34°39' E 033°00'0 0.0
2017-Sep-17 20:58N 34°39' E 033°00'0 0.0
2017-Sep-17 20:30N 34°39' E 033°00'0 0.0
2017-Sep-17 20:00N 34°39' E 033°00'0 0.0
2017-Sep-17 19:30N 34°39' E 033°00'0 0.0
2017-Sep-17 19:00N 34°39' E 033°00'1 2.8
2017-Sep-17 18:30N 34°39' E 033°02'1 0.2
2017-Sep-17 13:17N 34°39' E 033°03'2 7.2
2017-Sep-17 13:00N 34°39' E 033°01'0 0.2
2017-Sep-17 12:30N 34°39' E 033°01'0 0.0
2017-Sep-17 12:00N 34°39' E 033°00'0 0.0
2017-Sep-17 11:30N 34°39' E 033°00'0 0.0
2017-Sep-17 11:00N 34°39' E 033°01'0 0.0
2017-Sep-17 10:30N 34°39' E 033°00'0 0.0
2017-Sep-17 10:00N 34°39' E 033°00'0 0.0
2017-Sep-17 09:30N 34°39' E 033°00'0 0.0
2017-Sep-17 09:00N 34°39' E 033°00'0 0.0
2017-Sep-17 08:30N 34°39' E 033°00'0 0.0
2017-Sep-17 08:00N 34°39' E 033°01'0 0.0
2017-Sep-17 07:30N 34°39' E 033°01'0 0.0
2017-Sep-17 07:00N 34°39' E 033°00'0 0.0
2017-Sep-17 06:30N 34°39' E 033°00'0 0.0
2017-Sep-17 06:00N 34°39' E 033°00'0 0.0
2017-Sep-17 05:30N 34°39' E 033°01'0 0.0
2017-Sep-17 05:00N 34°39' E 033°00'0 0.0
2017-Sep-17 04:30N 34°39' E 033°00'0 0.0
2017-Sep-17 04:00N 34°39' E 033°00'0 0.0
2017-Sep-17 03:30N 34°39' E 033°01'0 0.0
2017-Sep-17 03:00N 34°39' E 033°00'0 0.0
2017-Sep-17 02:30N 34°39' E 033°00'0 0.0
2017-Sep-17 02:00N 34°39' E 033°00'0 0.0
2017-Sep-17 01:30N 34°39' E 033°00'0 0.0
2017-Sep-17 01:00N 34°39' E 033°00'0 0.0
2017-Sep-17 00:30N 34°39' E 033°00'0 0.0
2017-Sep-17 00:00N 34°39' E 033°00'0 0.0
2017-Sep-16 23:30N 34°39' E 033°00'0 0.0
2017-Sep-16 23:00N 34°39' E 033°00'0 0.0
2017-Sep-16 22:30N 34°39' E 033°00'0 0.0
2017-Sep-16 22:00N 34°39' E 033°00'0 0.0
2017-Sep-16 21:30N 34°39' E 033°01'0 0.0
2017-Sep-16 21:00N 34°39' E 033°00'0 0.0
2017-Sep-16 20:30N 34°39' E 033°00'0 0.0
2017-Sep-16 20:00N 34°39' E 033°00'0 0.0
2017-Sep-16 19:30N 34°39' E 033°00'0 0.0
2017-Sep-16 19:00N 34°39' E 033°00'0 0.0
2017-Sep-16 18:30N 34°39' E 033°01'0 0.0
2017-Sep-16 18:00N 34°39' E 033°00'0 0.0
2017-Sep-16 17:30N 34°39' E 033°00'0 0.0
2017-Sep-16 17:00N 34°39' E 033°00'0 0.0
2017-Sep-16 16:30N 34°39' E 033°00'0 0.0
2017-Sep-16 16:00N 34°39' E 033°01'0 0.0
2017-Sep-16 15:30N 34°39' E 033°01'0 0.0
2017-Sep-16 15:00N 34°39' E 033°01'0 0.0
2017-Sep-16 14:30N 34°39' E 033°00'0 0.0
2017-Sep-16 14:00N 34°39' E 033°00'0 0.1
2017-Sep-16 13:30N 34°39' E 033°00'1 0.1
2017-Sep-16 03:19N 34°39' E 033°02'1 4.0
2017-Sep-16 03:00N 34°39' E 033°00'0 0.0
2017-Sep-16 02:30N 34°39' E 033°00'0 0.0
2017-Sep-16 02:00N 34°39' E 033°00'0 0.0
2017-Sep-16 01:30N 34°39' E 033°00'0 0.0
2017-Sep-16 01:00N 34°39' E 033°00'0 0.0
2017-Sep-16 00:30N 34°39' E 033°00'0 0.0
2017-Sep-16 00:00N 34°39' E 033°00'0 0.0
2017-Sep-15 23:30N 34°39' E 033°00'0 0.0
2017-Sep-15 23:00N 34°39' E 033°00'0 0.0
2017-Sep-15 22:30N 34°39' E 033°00'0 0.0
2017-Sep-15 22:00N 34°39' E 033°00'0 0.0
2017-Sep-15 21:30N 34°39' E 033°00'0 0.0
2017-Sep-15 20:51N 34°39' E 033°00'0 0.0
2017-Sep-15 20:28N 34°39' E 033°00'0 0.0
2017-Sep-15 20:00N 34°39' E 033°00'0 0.0
2017-Sep-15 19:30N 34°39' E 033°00'0 0.0
2017-Sep-15 19:00N 34°39' E 033°00'0 0.0
2017-Sep-15 18:27N 34°39' E 033°00'0 0.0
2017-Sep-15 18:00N 34°39' E 033°00'0 0.0
2017-Sep-15 17:30N 34°39' E 033°00'0 0.0
2017-Sep-15 17:00N 34°39' E 033°00'0 0.0
2017-Sep-15 16:30N 34°39' E 033°00'0 0.0
2017-Sep-15 16:00N 34°39' E 033°00'0 0.0
2017-Sep-15 15:30N 34°39' E 033°00'0 0.0
2017-Sep-15 15:00N 34°39' E 033°00'0 0.0
2017-Sep-15 14:31N 34°39' E 033°01'0 0.1
2017-Sep-15 14:00N 34°39' E 033°00'0 0.0
2017-Sep-15 13:29N 34°39' E 033°00'0 0.1
2017-Sep-15 13:00N 34°39' E 033°01'0 0.0
2017-Sep-15 12:30N 34°39' E 033°00'0 0.0
2017-Sep-15 11:57N 34°39' E 033°00'0 0.0
2017-Sep-15 11:21N 34°39' E 033°00'0 0.0
2017-Sep-15 11:00N 34°39' E 033°00'0 0.0
2017-Sep-15 10:30N 34°39' E 033°01'0 0.0
2017-Sep-15 09:57N 34°39' E 033°00'0 0.0
2017-Sep-15 09:30N 34°39' E 033°00'0 0.0
2017-Sep-15 09:00N 34°39' E 033°00'0 0.0
2017-Sep-15 08:30N 34°39' E 033°00'0 0.0
2017-Sep-15 08:01N 34°39' E 033°00'0 0.0
2017-Sep-15 07:31N 34°39' E 033°00'0 0.0
2017-Sep-15 07:01N 34°39' E 033°00'0 0.0
2017-Sep-15 06:30N 34°39' E 033°00'0 0.0
2017-Sep-15 06:00N 34°39' E 033°01'0 0.0
2017-Sep-15 05:30N 34°39' E 033°01'0 0.0
2017-Sep-15 04:56N 34°39' E 033°00'0 0.0
2017-Sep-15 04:30N 34°39' E 033°01'0 0.0
2017-Sep-15 04:00N 34°39' E 033°00'0 0.0
2017-Sep-15 03:28N 34°39' E 033°01'0 0.0
2017-Sep-15 03:00N 34°39' E 033°00'0 0.0
2017-Sep-15 02:30N 34°39' E 033°01'0 0.0
2017-Sep-15 02:00N 34°39' E 033°00'0 0.0
2017-Sep-15 01:30N 34°39' E 033°00'0 0.0
2017-Sep-15 01:00N 34°39' E 033°00'0 0.0
2017-Sep-15 00:30N 34°39' E 033°00'0 0.0
2017-Sep-15 00:00N 34°39' E 033°01'0 0.0
2017-Sep-14 23:30N 34°39' E 033°01'0 0.0
2017-Sep-14 23:01N 34°39' E 033°01'0 0.0
2017-Sep-14 22:30N 34°39' E 033°00'0 0.0
2017-Sep-14 21:59N 34°39' E 033°00'0 0.0
2017-Sep-14 21:31N 34°39' E 033°01'0 0.0
2017-Sep-14 21:00N 34°39' E 033°01'0 0.0
2017-Sep-14 20:30N 34°39' E 033°00'0 0.0
2017-Sep-14 20:01N 34°39' E 033°00'0 0.0
2017-Sep-14 19:30N 34°39' E 033°00'0 0.0
2017-Sep-14 19:01N 34°39' E 033°00'0 0.0
2017-Sep-14 18:30N 34°39' E 033°00'0 0.0
2017-Sep-14 18:00N 34°39' E 033°00'0 0.0
2017-Sep-14 17:30N 34°39' E 033°01'0 0.0
2017-Sep-14 17:00N 34°39' E 033°00'0 0.0
2017-Sep-14 16:30N 34°39' E 033°00'2 0.3
2017-Sep-14 10:37N 34°39' E 033°03'1 5.4
2017-Sep-14 10:29N 34°39' E 033°02'1 2.9
2017-Sep-14 10:01N 34°39' E 033°00'0 0.0
2017-Sep-14 09:31N 34°39' E 033°00'0 0.0
2017-Sep-14 09:01N 34°39' E 033°00'0 0.0
2017-Sep-14 08:30N 34°39' E 033°00'0 0.0
2017-Sep-14 08:00N 34°39' E 033°00'0 0.0
2017-Sep-14 07:31N 34°39' E 033°00'0 0.0
2017-Sep-14 07:00N 34°39' E 033°00'0 0.0
2017-Sep-14 06:31N 34°39' E 033°00'0 0.0
2017-Sep-14 06:00N 34°39' E 033°00'0 0.0
2017-Sep-14 05:30N 34°39' E 033°00'0 0.0
2017-Sep-14 05:01N 34°39' E 033°01'0 0.0
2017-Sep-14 04:30N 34°39' E 033°00'0 0.0
2017-Sep-14 04:01N 34°39' E 033°00'0 0.0
2017-Sep-14 03:30N 34°39' E 033°00'0 0.0
2017-Sep-14 03:00N 34°39' E 033°01'0 0.0
2017-Sep-14 02:30N 34°39' E 033°00'1 1.6
2017-Sep-14 02:00N 34°39' E 033°01'16 6.1
2017-Sep-13 23:19N 34°32' E 033°19'15 5.9
2017-Sep-13 20:48N 34°39' E 033°03'2 6.5
2017-Sep-13 20:30N 34°39' E 033°01'0 0.3
2017-Sep-13 20:00N 34°39' E 033°00'0 0.0
2017-Sep-13 19:31N 34°39' E 033°00'0 0.0
2017-Sep-13 19:01N 34°39' E 033°01'0 0.0
2017-Sep-13 18:30N 34°39' E 033°00'0 0.0
2017-Sep-13 18:00N 34°39' E 033°00'0 0.0
2017-Sep-13 17:30N 34°39' E 033°00'0 0.0
2017-Sep-13 17:00N 34°39' E 033°00'0 0.0
2017-Sep-13 16:30N 34°39' E 033°00'0 0.0
2017-Sep-13 15:59N 34°39' E 033°00'0 0.0
2017-Sep-13 15:25N 34°39' E 033°01'0 0.0
2017-Sep-13 14:59N 34°39' E 033°00'0 0.0
2017-Sep-13 14:27N 34°39' E 033°00'0 0.0
2017-Sep-13 14:00N 34°39' E 033°00'0 0.0
2017-Sep-13 13:30N 34°39' E 033°00'0 0.0
2017-Sep-13 12:59N 34°39' E 033°01'0 0.0
2017-Sep-13 12:30N 34°39' E 033°01'0 0.0
2017-Sep-13 11:59N 34°39' E 033°00'0 0.0
2017-Sep-13 11:29N 34°39' E 033°00'0 0.0
2017-Sep-13 11:00N 34°39' E 033°00'0 0.0
2017-Sep-13 10:23N 34°39' E 033°00'0 0.0
2017-Sep-13 09:58N 34°39' E 033°00'0 0.0
2017-Sep-13 09:30N 34°39' E 033°00'0 0.0
2017-Sep-13 09:00N 34°39' E 033°00'0 0.0
2017-Sep-13 08:30N 34°39' E 033°00'0 0.0
2017-Sep-13 08:00N 34°39' E 033°00'0 0.0
2017-Sep-13 07:30N 34°39' E 033°00'0 0.1
2017-Sep-13 06:59N 34°39' E 033°01'0 0.1
2017-Sep-13 06:30N 34°39' E 033°00'0 0.1
2017-Sep-13 05:59N 34°39' E 033°00'16 6.4
2017-Sep-13 03:26N 34°31' E 033°18'1 1.1
2017-Sep-13 02:58N 34°31' E 033°18'15 5.9
2017-Sep-13 00:24N 34°39' E 033°02'2 3.7
2017-Sep-12 23:59N 34°39' E 033°00'0 0.0
2017-Sep-12 23:30N 34°39' E 033°01'0 0.0
2017-Sep-12 22:59N 34°39' E 033°00'0 0.0
2017-Sep-12 22:30N 34°39' E 033°00'0 0.0
2017-Sep-12 22:00N 34°39' E 033°00'0 0.0
2017-Sep-12 21:30N 34°39' E 033°00'0 0.0
2017-Sep-12 21:00N 34°39' E 033°00'0 0.0
2017-Sep-12 20:31N 34°39' E 033°00'0 0.0
2017-Sep-12 20:00N 34°39' E 033°00'0 0.0
2017-Sep-12 19:31N 34°39' E 033°00'0 0.0
2017-Sep-12 19:01N 34°39' E 033°00'0 0.0
2017-Sep-12 18:31N 34°39' E 033°00'0 0.0
2017-Sep-12 18:00N 34°39' E 033°00'0 0.0
2017-Sep-12 17:30N 34°39' E 033°00'0 0.0
2017-Sep-12 17:00N 34°39' E 033°00'0 0.0
2017-Sep-12 16:30N 34°39' E 033°01'0 0.0
2017-Sep-12 16:00N 34°39' E 033°00'0 0.0
2017-Sep-12 15:30N 34°39' E 033°00'0 0.0
2017-Sep-12 15:00N 34°39' E 033°01'0 0.0
2017-Sep-12 14:30N 34°39' E 033°00'0 0.1
2017-Sep-12 14:00N 34°39' E 033°01'0 0.0
2017-Sep-12 13:30N 34°39' E 033°01'0 0.1
2017-Sep-12 13:00N 34°39' E 033°01'0 0.0
2017-Sep-12 12:30N 34°39' E 033°01'0 0.1
2017-Sep-12 12:00N 34°39' E 033°00'0 0.0
2017-Sep-12 11:30N 34°39' E 033°00'0 0.0
2017-Sep-12 11:01N 34°39' E 033°00'0 0.0
2017-Sep-12 10:30N 34°39' E 033°00'0 0.0
2017-Sep-12 10:00N 34°39' E 033°00'0 0.0
2017-Sep-12 09:30N 34°39' E 033°00'0 0.0
2017-Sep-12 09:00N 34°39' E 033°00'0 0.0
2017-Sep-12 08:30N 34°39' E 033°00'0 0.0
2017-Sep-12 08:00N 34°39' E 033°00'0 0.0
2017-Sep-12 07:30N 34°39' E 033°00'0 0.0
2017-Sep-12 07:00N 34°39' E 033°00'0 0.0
2017-Sep-12 06:30N 34°39' E 033°00'0 0.0
2017-Sep-12 05:58N 34°39' E 033°00'0 0.0
2017-Sep-12 04:40N 34°39' E 033°00'0 0.0
2017-Sep-12 04:30N 34°39' E 033°00'0 0.0
2017-Sep-12 00:47N 34°39' E 033°00'0 0.0
2017-Sep-12 00:10N 34°39' E 033°00'0 0.0
2017-Sep-11 23:54N 34°39' E 033°00'0 0.0
2017-Sep-11 23:27N 34°39' E 033°00'0 0.0
2017-Sep-11 22:58N 34°39' E 033°00'0 0.0
2017-Sep-11 22:30N 34°39' E 033°00'0 0.0
2017-Sep-11 22:01N 34°39' E 033°00'0 0.0
2017-Sep-11 21:29N 34°39' E 033°00'0 0.0
2017-Sep-11 21:00N 34°39' E 033°00'0 0.0
2017-Sep-11 19:51N 34°39' E 033°00'0 0.0
2017-Sep-11 18:38N 34°39' E 033°00'0 0.0
2017-Sep-11 15:09N 34°39' E 033°00'0 0.0
2017-Sep-11 14:53N 34°39' E 033°00'0 0.0
2017-Sep-11 14:27N 34°39' E 033°00'0 0.0
2017-Sep-11 13:59N 34°39' E 033°00'0 0.0
2017-Sep-11 13:28N 34°39' E 033°00'0 0.0
2017-Sep-11 13:00N 34°39' E 033°00'0 0.0
2017-Sep-11 12:28N 34°39' E 033°00'0 0.0
2017-Sep-11 11:59N 34°39' E 033°00'0 0.0
2017-Sep-11 11:25N 34°39' E 033°00'0 0.0
2017-Sep-11 10:50N 34°39' E 033°00'0 0.0
2017-Sep-11 10:16N 34°39' E 033°00'0 0.0
2017-Sep-11 09:59N 34°39' E 033°00'0 0.0
2017-Sep-11 09:30N 34°39' E 033°00'0 0.0
2017-Sep-11 08:57N 34°39' E 033°00'0 0.0
2017-Sep-11 08:25N 34°39' E 033°00'0 0.0
2017-Sep-11 07:49N 34°39' E 033°00'0 0.0
2017-Sep-11 07:04N 34°39' E 033°00'0 0.0
2017-Sep-11 06:57N 34°39' E 033°00'0 0.0
2017-Sep-11 06:29N 34°39' E 033°00'0 0.0
2017-Sep-11 03:52N 34°39' E 033°00'0 0.0
2017-Sep-11 03:27N 34°39' E 033°00'0 0.0
2017-Sep-10 21:23N 34°39' E 033°00'0 0.0
2017-Sep-10 18:56N 34°39' E 033°00'0 0.0
2017-Sep-10 18:07N 34°39' E 033°00'0 0.0
2017-Sep-10 18:00N 34°39' E 033°00'0 0.0
2017-Sep-10 17:29N 34°39' E 033°00'0 0.0
2017-Sep-10 17:00N 34°39' E 033°00'0 0.0
2017-Sep-10 15:44N 34°39' E 033°00'0 0.0
2017-Sep-10 13:45N 34°39' E 033°00'0 0.0
2017-Sep-10 12:39N 34°39' E 033°00'0 0.0
2017-Sep-10 12:25N 34°39' E 033°00'0 0.0
2017-Sep-10 11:57N 34°39' E 033°00'0 0.0
2017-Sep-10 11:27N 34°39' E 033°00'0 0.0
2017-Sep-10 11:00N 34°39' E 033°00'0 0.0
2017-Sep-10 10:26N 34°39' E 033°00'0 0.0
2017-Sep-10 10:01N 34°39' E 033°00'0 0.0
2017-Sep-10 09:30N 34°39' E 033°00'0 0.0
2017-Sep-10 09:00N 34°39' E 033°00'0 0.0
2017-Sep-10 08:30N 34°39' E 033°00'0 0.0
2017-Sep-10 08:00N 34°39' E 033°00'0 0.0
2017-Sep-10 07:30N 34°39' E 033°00'0 0.0
2017-Sep-10 07:01N 34°39' E 033°00'0 0.0
2017-Sep-10 06:30N 34°39' E 033°00'0 0.0
2017-Sep-10 05:58N 34°39' E 033°00'0 0.0
2017-Sep-10 04:26N 34°39' E 033°00'0 0.0
2017-Sep-10 04:00N 34°39' E 033°00'  

Dump ship's entire track history